Time;durP1;ratioP1;P1;durP2;ratioP2;P2;SDS_P1;SDS_P2;PMS_P1;PMS_P2;Temp;Humidity;BMP_temperature;BMP_pressure;BME280_temperature;BME280_humidity;BME280_pressure;Samples;Min_cycle;Max_cycle;Signal;HPM_P1;HPM_P2
2023/04/09 00:00:38;;;;;;;8.97;8.07;;;5.20;99.90;;;;;;5116792;28;20258;-75
2023/04/09 00:03:04;;;;;;;9.67;7.93;;;5.30;99.90;;;;;;5116122;28;20165;-77
2023/04/09 00:05:30;;;;;;;8.33;7.53;;;5.30;99.90;;;;;;5114857;28;20666;-74
2023/04/09 00:07:56;;;;;;;9.83;8.27;;;5.30;99.90;;;;;;5114367;28;20210;-78
2023/04/09 00:10:22;;;;;;;9.23;8.17;;;5.30;99.90;;;;;;5096178;28;20181;-78
2023/04/09 00:12:47;;;;;;;8.77;7.70;;;5.20;99.90;;;;;;5113882;28;20283;-83
2023/04/09 00:15:13;;;;;;;9.17;7.97;;;5.20;99.90;;;;;;5114468;28;20224;-80
2023/04/09 00:17:39;;;;;;;9.30;8.23;;;5.20;99.90;;;;;;5127001;28;20181;-78
2023/04/09 00:20:06;;;;;;;10.43;8.10;;;5.30;99.90;;;;;;5130360;28;20220;-79
2023/04/09 00:22:32;;;;;;;13.17;8.53;;;5.20;99.90;;;;;;5116879;28;20503;-80
2023/04/09 00:24:58;;;;;;;8.93;7.87;;;5.20;99.90;;;;;;5114357;28;20219;-80
2023/04/09 00:27:23;;;;;;;9.17;8.20;;;5.20;99.90;;;;;;5114358;28;20569;-80
2023/04/09 00:29:49;;;;;;;9.13;8.03;;;5.10;99.90;;;;;;5113676;28;20177;-78
2023/04/09 00:32:15;;;;;;;9.37;8.37;;;5.10;99.90;;;;;;5113729;28;20178;-78
2023/04/09 00:34:40;;;;;;;9.43;8.33;;;5.20;99.90;;;;;;5113447;28;20231;-78
2023/04/09 00:37:06;;;;;;;9.40;7.67;;;5.10;99.90;;;;;;5112979;28;20216;-82
2023/04/09 00:39:32;;;;;;;10.37;7.90;;;5.10;99.90;;;;;;5112559;28;20323;-78
2023/04/09 00:42:04;;;;;;;9.93;8.63;;;5.20;99.90;;;;;;5094598;28;20259;-77
2023/04/09 00:44:29;;;;;;;8.87;7.80;;;5.20;99.90;;;;;;5112982;28;20169;-77
2023/04/09 00:46:58;;;;;;;8.70;7.80;;;5.20;99.90;;;;;;5112545;28;20536;-76
2023/04/09 00:49:25;;;;;;;9.17;7.50;;;5.20;99.90;;;;;;5112813;28;20264;-79
2023/04/09 00:51:51;;;;;;;8.67;7.30;;;5.20;99.90;;;;;;5112491;28;20177;-75
2023/04/09 00:54:18;;;;;;;10.00;7.57;;;5.20;99.90;;;;;;5112590;28;20186;-78
2023/04/09 00:56:44;;;;;;;9.67;7.97;;;5.10;99.90;;;;;;5112157;28;20251;-81
2023/04/09 00:59:13;;;;;;;9.23;7.70;;;5.10;99.90;;;;;;5112867;28;20213;-77
2023/04/09 01:01:39;;;;;;;8.77;7.40;;;5.10;99.90;;;;;;5095318;28;20652;-75
2023/04/09 01:04:04;;;;;;;9.20;7.20;;;5.20;99.90;;;;;;5094810;28;20181;-78
2023/04/09 01:06:44;;;;;;;9.60;7.43;;;5.20;99.90;;;;;;5094004;28;20226;-76
2023/04/09 01:09:22;;;;;;;10.57;7.73;;;5.20;99.90;;;;;;5112560;28;20166;-76
2023/04/09 01:11:55;;;;;;;11.33;7.87;;;5.10;99.90;;;;;;5112148;28;20249;-75
2023/04/09 01:14:36;;;;;;;12.27;7.80;;;5.10;99.90;;;;;;5111945;28;20712;-75
2023/04/09 01:17:13;;;;;;;10.73;8.37;;;5.10;99.90;;;;;;5112132;28;20193;-74
2023/04/09 01:19:52;;;;;;;11.17;7.63;;;5.10;99.90;;;;;;5112080;28;20250;-75
2023/04/09 01:22:37;;;;;;;9.57;7.83;;;5.10;99.90;;;;;;5112071;28;20224;-78
2023/04/09 01:25:18;;;;;;;9.67;8.03;;;5.10;99.90;;;;;;5093825;28;20170;-78
2023/04/09 01:27:55;;;;;;;10.17;8.30;;;5.10;99.90;;;;;;5093722;28;20648;-77
2023/04/09 01:30:21;;;;;;;11.23;7.77;;;5.20;99.90;;;;;;5093790;28;20182;-79
2023/04/09 01:32:48;;;;;;;11.67;8.23;;;5.20;99.90;;;;;;5112188;28;20171;-76
2023/04/09 01:35:14;;;;;;;13.07;8.23;;;5.20;99.90;;;;;;5094245;28;20224;-77
2023/04/09 01:37:41;;;;;;;9.30;8.30;;;5.20;99.90;;;;;;5093940;28;20174;-75
2023/04/09 01:40:07;;;;;;;11.27;8.17;;;5.30;99.90;;;;;;5093604;28;20238;-81
2023/04/09 01:42:35;;;;;;;9.90;7.80;;;5.30;99.90;;;;;;5112059;28;20603;-77
2023/04/09 01:45:02;;;;;;;10.77;8.00;;;5.30;99.90;;;;;;5112033;28;20202;-80
2023/04/09 01:47:28;;;;;;;10.47;7.70;;;5.30;99.90;;;;;;5111910;28;20178;-83
2023/04/09 01:49:54;;;;;;;9.30;7.63;;;5.30;99.90;;;;;;5112167;28;20705;-75
2023/04/09 01:52:20;;;;;;;9.40;7.63;;;5.30;99.90;;;;;;5111924;28;20163;-75
2023/04/09 01:54:46;;;;;;;10.00;8.20;;;5.20;99.90;;;;;;5110967;28;20178;-79
2023/04/09 01:57:11;;;;;;;8.77;7.83;;;5.30;99.90;;;;;;5110957;28;20200;-81
2023/04/09 01:59:37;;;;;;;9.13;7.77;;;5.30;99.90;;;;;;5111115;28;20341;-77
2023/04/09 02:02:11;;;;;;;10.37;7.67;;;5.40;99.90;;;;;;5113936;28;20907;-82
2023/04/09 02:04:50;;;;;;;9.63;7.60;;;5.30;99.90;;;;;;5120449;28;20163;-78
2023/04/09 02:07:39;;;;;;;10.37;7.70;;;5.40;99.90;;;;;;5118700;28;20161;-78
2023/04/09 02:10:07;;;;;;;9.83;7.90;;;5.30;99.90;;;;;;5101398;28;20173;-78
2023/04/09 02:12:37;;;;;;;8.67;7.30;;;5.30;99.90;;;;;;5121363;28;20162;-77
2023/04/09 02:15:04;;;;;;;9.00;8.00;;;5.30;99.90;;;;;;5099891;28;20724;-78
2023/04/09 02:17:30;;;;;;;8.67;7.20;;;5.30;99.90;;;;;;5116380;28;20177;-74
2023/04/09 02:19:56;;;;;;;10.20;8.63;;;5.30;99.90;;;;;;5114035;28;20568;-81
2023/04/09 02:22:21;;;;;;;8.00;7.20;;;5.40;99.90;;;;;;5117141;28;20664;-78
2023/04/09 02:24:47;;;;;;;8.67;7.40;;;5.30;99.90;;;;;;5115508;28;20185;-77
2023/04/09 02:27:13;;;;;;;9.23;7.47;;;5.40;99.90;;;;;;5115219;28;20691;-75
2023/04/09 02:29:40;;;;;;;10.53;8.70;;;5.40;99.90;;;;;;5115426;28;20188;-82
2023/04/09 02:32:06;;;;;;;10.40;8.87;;;5.40;99.90;;;;;;5115220;28;20203;-76
2023/04/09 02:34:31;;;;;;;10.60;7.70;;;5.40;99.90;;;;;;5115572;28;20178;-78
2023/04/09 02:36:57;;;;;;;8.83;7.13;;;5.40;99.90;;;;;;5114914;28;20916;-78
2023/04/09 02:39:23;;;;;;;9.97;8.17;;;5.50;99.90;;;;;;5115134;28;20247;-81
2023/04/09 02:41:49;;;;;;;10.50;7.97;;;5.40;99.90;;;;;;5115164;28;20312;-76
2023/04/09 02:44:14;;;;;;;10.03;7.77;;;5.50;99.90;;;;;;5114330;28;20706;-76
2023/04/09 02:46:41;;;;;;;9.27;7.33;;;5.40;99.90;;;;;;5115108;28;20170;-76
2023/04/09 02:49:07;;;;;;;10.27;8.50;;;5.40;99.90;;;;;;5115025;28;20166;-78
2023/04/09 02:51:35;;;;;;;8.83;7.83;;;5.30;99.90;;;;;;5114998;28;20183;-77
2023/04/09 02:54:02;;;;;;;10.10;7.67;;;5.40;99.90;;;;;;5114908;28;20578;-76
2023/04/09 02:56:28;;;;;;;8.60;7.50;;;5.30;99.90;;;;;;5114723;28;20638;-78
2023/04/09 02:58:54;;;;;;;9.50;7.90;;;5.30;99.90;;;;;;5114826;28;20201;-78
2023/04/09 03:01:20;;;;;;;8.80;7.90;;;5.30;99.90;;;;;;5114688;28;20191;-74
2023/04/09 03:03:46;;;;;;;9.87;7.47;;;5.30;99.90;;;;;;5114509;28;20517;-77
2023/04/09 03:06:12;;;;;;;11.37;8.10;;;5.40;99.90;;;;;;5096354;28;20182;-75
2023/04/09 03:08:38;;;;;;;9.50;7.90;;;5.40;99.90;;;;;;5096382;28;20183;-83
2023/04/09 03:11:04;;;;;;;7.87;7.07;;;5.30;99.90;;;;;;5114596;28;20267;-79
2023/04/09 03:13:29;;;;;;;9.33;8.10;;;5.30;99.90;;;;;;5114398;28;20186;-76
2023/04/09 03:15:55;;;;;;;8.70;7.47;;;5.30;99.90;;;;;;5114103;28;20225;-80
2023/04/09 03:18:21;;;;;;;9.40;7.80;;;5.30;99.90;;;;;;5114295;28;20168;-82
2023/04/09 03:20:47;;;;;;;9.00;7.77;;;5.30;99.90;;;;;;5095844;28;20584;-77
2023/04/09 03:23:13;;;;;;;9.17;8.00;;;5.30;99.90;;;;;;5114241;28;20166;-76
2023/04/09 03:25:38;;;;;;;10.53;7.43;;;5.30;99.90;;;;;;5114281;28;20182;-75
2023/04/09 03:28:04;;;;;;;9.10;7.43;;;5.20;99.90;;;;;;5114588;28;20169;-77
2023/04/09 03:30:30;;;;;;;11.60;8.90;;;5.20;99.90;;;;;;5115193;28;20213;-83
2023/04/09 03:32:56;;;;;;;11.07;8.20;;;5.20;99.90;;;;;;5114136;28;20165;-76
2023/04/09 03:35:22;;;;;;;8.00;7.20;;;5.20;99.90;;;;;;5114794;28;20193;-78
2023/04/09 03:37:48;;;;;;;9.87;7.83;;;5.20;99.90;;;;;;5114474;28;20208;-82
2023/04/09 03:40:14;;;;;;;8.77;7.33;;;5.20;99.90;;;;;;5116879;28;20232;-79
2023/04/09 03:42:42;;;;;;;8.93;6.87;;;5.20;99.90;;;;;;5114881;28;20261;-76
2023/04/09 03:45:08;;;;;;;8.77;7.17;;;5.20;99.90;;;;;;5114121;28;20175;-77
2023/04/09 03:47:33;;;;;;;9.57;7.77;;;5.20;99.90;;;;;;5095706;28;20184;-83
2023/04/09 03:49:59;;;;;;;8.83;7.17;;;5.20;99.90;;;;;;5079425;28;20177;-76
2023/04/09 03:52:25;;;;;;;7.47;6.70;;;5.10;99.90;;;;;;5116684;28;20205;-81
2023/04/09 03:54:50;;;;;;;8.37;6.63;;;5.00;99.90;;;;;;5103478;28;20212;-76
2023/04/09 03:57:16;;;;;;;8.00;7.20;;;5.00;99.90;;;;;;5118199;28;20180;-78
2023/04/09 03:59:42;;;;;;;8.93;7.13;;;5.20;99.90;;;;;;5115268;28;20322;-76
2023/04/09 04:02:07;;;;;;;8.93;7.30;;;5.30;99.90;;;;;;5114395;28;20601;-75
2023/04/09 04:04:33;;;;;;;8.87;7.33;;;5.20;99.90;;;;;;5114108;28;20178;-76
2023/04/09 04:06:59;;;;;;;8.70;7.60;;;5.20;99.90;;;;;;5114940;28;20629;-79
2023/04/09 04:09:25;;;;;;;11.27;8.03;;;5.20;99.90;;;;;;5114386;28;20170;-77
2023/04/09 04:11:50;;;;;;;9.97;7.77;;;5.30;99.90;;;;;;5113425;28;20177;-76
2023/04/09 04:14:16;;;;;;;9.93;8.10;;;5.20;99.90;;;;;;5113265;28;20230;-76
2023/04/09 04:16:42;;;;;;;9.37;8.30;;;5.20;99.90;;;;;;5113260;28;20163;-74
2023/04/09 04:19:07;;;;;;;9.50;7.80;;;5.20;99.90;;;;;;5113249;28;20270;-74
2023/04/09 04:21:33;;;;;;;11.40;8.90;;;5.20;99.90;;;;;;5113142;28;20197;-76
2023/04/09 04:23:59;;;;;;;10.23;8.27;;;5.30;99.90;;;;;;5112953;28;20178;-76
2023/04/09 04:26:25;;;;;;;11.27;8.50;;;5.30;99.90;;;;;;5094613;28;20262;-75
2023/04/09 04:28:51;;;;;;;10.43;8.53;;;5.30;99.90;;;;;;5094780;28;20610;-76
2023/04/09 04:31:16;;;;;;;10.13;8.43;;;5.30;99.90;;;;;;5112296;28;20260;-75
2023/04/09 04:33:42;;;;;;;12.67;9.90;;;5.30;99.90;;;;;;5113012;28;20249;-74
2023/04/09 04:36:10;;;;;;;9.27;8.30;;;5.30;99.90;;;;;;5112865;28;20182;-79
2023/04/09 04:38:37;;;;;;;11.50;9.13;;;5.40;99.90;;;;;;5113067;28;20669;-76
2023/04/09 04:41:03;;;;;;;10.53;8.87;;;5.30;99.90;;;;;;5113539;28;20292;-78
2023/04/09 04:43:29;;;;;;;11.10;9.00;;;5.30;99.90;;;;;;5095838;28;20278;-80
2023/04/09 04:45:54;;;;;;;11.63;9.37;;;5.30;99.90;;;;;;5113987;28;20178;-81
2023/04/09 04:48:21;;;;;;;11.17;8.53;;;5.30;99.90;;;;;;5113019;28;20170;-75
2023/04/09 04:50:53;;;;;;;10.50;8.33;;;5.30;99.90;;;;;;5094405;28;20225;-77
2023/04/09 04:53:19;;;;;;;9.13;8.10;;;5.30;99.90;;;;;;5113861;28;20254;-78
2023/04/09 04:55:44;;;;;;;11.00;8.53;;;5.30;99.90;;;;;;5118295;28;20248;-76
2023/04/09 04:58:10;;;;;;;12.20;9.03;;;5.30;99.90;;;;;;5114336;28;20204;-79
2023/04/09 05:00:36;;;;;;;10.70;8.67;;;5.40;99.90;;;;;;5113522;28;20301;-81
2023/04/09 05:03:01;;;;;;;11.23;8.67;;;5.40;99.90;;;;;;5097200;28;20174;-77
2023/04/09 05:05:27;;;;;;;8.97;7.77;;;5.50;99.90;;;;;;5114512;28;20174;-79
2023/04/09 05:07:53;;;;;;;10.53;8.30;;;5.50;99.90;;;;;;5113169;28;20684;-77
2023/04/09 05:10:19;;;;;;;9.40;7.93;;;5.50;99.90;;;;;;5114411;28;20216;-83
2023/04/09 05:12:45;;;;;;;11.20;8.23;;;5.50;99.90;;;;;;5095954;28;20624;-81
2023/04/09 05:15:11;;;;;;;9.27;7.77;;;5.60;99.90;;;;;;5112286;28;20261;-79
2023/04/09 05:17:36;;;;;;;8.73;7.83;;;5.60;99.90;;;;;;5094111;28;20173;-78
2023/04/09 05:20:05;;;;;;;8.83;7.60;;;5.60;99.90;;;;;;5113929;28;20661;-76
2023/04/09 05:22:31;;;;;;;9.27;7.50;;;5.60;99.90;;;;;;5114164;28;20174;-81
2023/04/09 05:25:00;;;;;;;11.03;8.50;;;5.60;99.90;;;;;;5095186;28;20173;-81
2023/04/09 05:27:26;;;;;;;12.90;8.33;;;5.70;99.90;;;;;;5094516;28;20242;-78
2023/04/09 05:29:52;;;;;;;8.73;7.37;;;5.80;99.90;;;;;;5094869;28;20175;-78
2023/04/09 05:32:18;;;;;;;9.40;7.50;;;5.80;99.90;;;;;;5113236;28;20191;-79
2023/04/09 05:34:43;;;;;;;10.83;8.20;;;5.80;99.90;;;;;;5112705;28;20164;-78
2023/04/09 05:37:09;;;;;;;7.80;7.00;;;5.90;99.90;;;;;;5113991;28;20204;-80
2023/04/09 05:39:35;;;;;;;9.77;7.97;;;5.80;99.90;;;;;;5118503;28;20207;-77
2023/04/09 05:42:01;;;;;;;9.40;7.87;;;5.90;99.90;;;;;;5100267;28;20167;-76
2023/04/09 05:44:27;;;;;;;8.83;7.90;;;6.00;99.90;;;;;;5120198;28;20261;-74
2023/04/09 05:46:52;;;;;;;9.87;7.73;;;6.00;99.90;;;;;;5118571;28;20166;-76
2023/04/09 05:49:21;;;;;;;8.97;7.73;;;6.00;99.90;;;;;;5123557;28;20225;-77
2023/04/09 05:51:48;;;;;;;7.73;6.93;;;6.00;99.90;;;;;;5118415;28;20215;-75
2023/04/09 05:54:22;;;;;;;8.37;7.47;;;5.90;99.90;;;;;;5099673;28;20647;-74
2023/04/09 05:56:48;;;;;;;8.10;7.30;;;6.00;99.90;;;;;;5099355;28;20218;-75
2023/04/09 05:59:14;;;;;;;9.23;7.63;;;6.10;99.90;;;;;;5116788;28;20194;-76
2023/04/09 06:01:40;;;;;;;7.87;7.00;;;6.10;99.90;;;;;;5098776;28;20237;-78
2023/04/09 06:04:05;;;;;;;11.10;7.40;;;6.00;99.90;;;;;;5097934;28;20179;-77
2023/04/09 06:06:31;;;;;;;7.73;6.93;;;6.10;99.90;;;;;;5097527;28;20184;-76
2023/04/09 06:08:57;;;;;;;9.70;7.43;;;6.10;99.90;;;;;;5115998;28;20178;-74
2023/04/09 06:11:23;;;;;;;8.90;6.80;;;6.10;99.90;;;;;;5115941;28;20718;-77
2023/04/09 06:13:48;;;;;;;8.10;6.73;;;6.20;99.90;;;;;;5116162;28;20536;-76
2023/04/09 06:16:14;;;;;;;7.53;6.70;;;6.20;99.90;;;;;;5115677;28;20174;-76
2023/04/09 06:18:41;;;;;;;6.93;6.23;;;6.20;99.90;;;;;;5117320;28;20645;-75
2023/04/09 06:21:08;;;;;;;7.27;6.53;;;6.20;99.90;;;;;;5117530;28;20206;-79
2023/04/09 06:23:35;;;;;;;9.17;6.63;;;6.20;99.90;;;;;;5118172;28;20255;-79
2023/04/09 06:26:01;;;;;;;7.87;6.33;;;6.20;99.90;;;;;;5118987;28;20189;-81
2023/04/09 06:28:30;;;;;;;6.63;5.93;;;6.20;99.90;;;;;;5117423;28;20186;-77
2023/04/09 06:30:56;;;;;;;7.53;6.60;;;6.30;99.90;;;;;;5117754;28;20174;-80
2023/04/09 06:33:22;;;;;;;7.00;6.30;;;6.30;99.90;;;;;;5117547;28;20279;-78
2023/04/09 06:35:48;;;;;;;7.10;6.10;;;6.30;99.90;;;;;;5116409;28;20189;-76
2023/04/09 06:38:17;;;;;;;8.73;7.07;;;6.30;99.90;;;;;;5119475;28;20175;-77
2023/04/09 06:40:43;;;;;;;8.00;6.47;;;6.20;99.90;;;;;;5117984;28;20262;-74
2023/04/09 06:43:09;;;;;;;8.10;6.40;;;6.20;99.90;;;;;;5115756;28;20171;-76
2023/04/09 06:45:36;;;;;;;7.10;6.40;;;6.20;99.90;;;;;;5117613;28;20550;-76
2023/04/09 06:48:03;;;;;;;8.37;6.67;;;6.20;99.90;;;;;;5117608;28;20170;-76
2023/04/09 06:50:29;;;;;;;7.77;6.73;;;6.10;99.90;;;;;;5098187;28;20267;-77
2023/04/09 06:52:55;;;;;;;7.63;6.43;;;6.10;99.90;;;;;;5116644;28;20173;-80
2023/04/09 06:55:21;;;;;;;6.27;5.67;;;6.10;99.90;;;;;;5119701;28;20518;-83
2023/04/09 06:57:46;;;;;;;7.47;6.10;;;6.10;99.90;;;;;;5119319;28;20215;-81
2023/04/09 07:00:12;;;;;;;6.37;5.73;;;6.10;99.90;;;;;;5120339;28;20205;-81
2023/04/09 07:02:38;;;;;;;7.73;6.50;;;6.10;99.90;;;;;;5118553;28;20169;-80
2023/04/09 07:05:04;;;;;;;7.07;6.37;;;6.20;99.90;;;;;;5096825;28;20170;-80
2023/04/09 07:07:30;;;;;;;6.90;6.20;;;6.20;99.90;;;;;;5114598;28;20176;-79
2023/04/09 07:09:56;;;;;;;7.73;6.10;;;6.20;99.90;;;;;;5113949;28;20525;-80
2023/04/09 07:12:29;;;;;;;7.43;6.53;;;6.20;99.90;;;;;;5114927;28;20174;-82
2023/04/09 07:15:03;;;;;;;6.93;5.87;;;6.30;99.90;;;;;;5096919;28;20226;-78
2023/04/09 07:17:29;;;;;;;7.37;6.57;;;6.30;99.90;;;;;;5096536;28;20162;-81
2023/04/09 07:19:55;;;;;;;6.27;5.67;;;6.30;99.90;;;;;;5100133;28;20206;-76
2023/04/09 07:22:21;;;;;;;6.30;5.70;;;6.30;99.90;;;;;;5118444;28;20170;-77
2023/04/09 07:24:52;;;;;;;8.03;6.80;;;6.30;99.90;;;;;;5097460;28;20174;-79
2023/04/09 07:27:20;;;;;;;7.67;6.57;;;6.40;99.90;;;;;;5116889;28;20199;-77
2023/04/09 07:29:46;;;;;;;8.60;6.70;;;6.40;99.90;;;;;;5120802;28;20176;-81
2023/04/09 07:32:11;;;;;;;6.57;5.77;;;6.40;99.90;;;;;;5114540;28;20201;-77
2023/04/09 07:34:37;;;;;;;7.63;6.37;;;6.50;99.90;;;;;;5094754;28;20173;-78
2023/04/09 07:37:03;;;;;;;9.37;6.70;;;6.50;99.90;;;;;;5113081;28;20592;-81
2023/04/09 07:39:29;;;;;;;8.93;6.27;;;6.60;99.90;;;;;;5094674;28;20220;-77
2023/04/09 07:41:56;;;;;;;7.40;6.53;;;6.60;99.90;;;;;;5097573;28;20176;-78
2023/04/09 07:44:22;;;;;;;8.03;7.23;;;6.60;99.90;;;;;;5106394;28;20174;-77
2023/04/09 07:46:48;;;;;;;7.07;6.37;;;6.70;99.90;;;;;;5099988;28;20246;-74
2023/04/09 07:49:13;;;;;;;6.60;5.97;;;6.80;99.90;;;;;;5114137;28;20182;-74
2023/04/09 07:51:39;;;;;;;6.20;5.60;;;6.80;99.90;;;;;;5112398;28;20268;-76
2023/04/09 07:54:05;;;;;;;5.30;4.80;;;7.00;99.90;;;;;;5113754;28;20177;-77
2023/04/09 07:56:31;;;;;;;6.47;5.87;;;7.00;99.90;;;;;;5113722;28;20181;-76
2023/04/09 07:58:56;;;;;;;6.87;5.93;;;7.00;99.90;;;;;;5113399;28;20176;-75
2023/04/09 08:01:23;;;;;;;6.77;5.97;;;7.10;99.90;;;;;;5113883;28;20285;-81
2023/04/09 08:03:49;;;;;;;6.10;5.50;;;7.10;99.90;;;;;;5113904;28;20190;-76
2023/04/09 08:06:15;;;;;;;6.97;6.10;;;7.20;99.90;;;;;;5112552;28;20176;-81
2023/04/09 08:08:42;;;;;;;6.40;5.73;;;7.20;99.90;;;;;;5113559;28;20177;-80
2023/04/09 08:11:08;;;;;;;5.40;4.90;;;7.30;99.90;;;;;;5113486;28;20169;-82
2023/04/09 08:13:33;;;;;;;6.50;5.90;;;7.40;99.90;;;;;;5113401;28;20183;-76
2023/04/09 08:16:01;;;;;;;5.67;5.13;;;7.50;99.90;;;;;;5095287;28;20517;-81
2023/04/09 08:18:27;;;;;;;5.70;5.20;;;7.40;99.90;;;;;;5113084;28;20179;-81
2023/04/09 08:20:53;;;;;;;5.70;5.20;;;7.40;99.90;;;;;;5113267;28;20207;-83
2023/04/09 08:23:19;;;;;;;6.17;5.57;;;7.40;99.90;;;;;;5113587;28;20205;-79
2023/04/09 08:25:45;;;;;;;6.87;5.90;;;7.40;99.90;;;;;;5113698;28;20250;-77
2023/04/09 08:28:10;;;;;;;5.90;5.33;;;7.40;99.90;;;;;;5112779;28;20181;-81
2023/04/09 08:30:36;;;;;;;6.27;5.67;;;7.40;99.90;;;;;;5094924;28;20237;-76
2023/04/09 08:33:02;;;;;;;6.03;5.43;;;7.50;99.90;;;;;;5113034;28;20168;-75
2023/04/09 08:35:30;;;;;;;6.30;5.73;;;7.50;99.90;;;;;;5113005;28;20223;-75
2023/04/09 08:37:56;;;;;;;6.03;5.53;;;7.60;99.90;;;;;;5112759;28;21081;-76
2023/04/09 08:40:22;;;;;;;6.00;5.40;;;7.70;99.90;;;;;;5112732;28;20534;-74
2023/04/09 08:42:56;;;;;;;6.43;5.83;;;7.70;99.90;;;;;;5112955;28;20176;-76
2023/04/09 08:45:23;;;;;;;6.67;5.97;;;7.80;99.90;;;;;;5112924;28;20254;-78
2023/04/09 08:47:49;;;;;;;5.90;5.40;;;7.70;99.90;;;;;;5112551;28;20184;-75
2023/04/09 08:50:15;;;;;;;5.83;5.23;;;7.70;99.90;;;;;;5112451;28;20631;-76
2023/04/09 08:52:44;;;;;;;5.47;4.70;;;7.80;99.90;;;;;;5112643;28;20253;-76
2023/04/09 08:55:11;;;;;;;6.23;5.63;;;7.80;99.90;;;;;;5113575;28;20278;-74
2023/04/09 08:57:38;;;;;;;6.33;5.73;;;7.80;99.90;;;;;;5112556;28;20211;-74
2023/04/09 09:00:04;;;;;;;6.13;5.30;;;7.80;99.90;;;;;;5112382;28;20211;-74
2023/04/09 09:02:30;;;;;;;5.70;5.20;;;7.80;99.90;;;;;;5112709;28;20168;-76
2023/04/09 09:05:05;;;;;;;6.70;6.00;;;7.80;99.90;;;;;;5113157;28;20347;-79
2023/04/09 09:07:33;;;;;;;6.77;5.83;;;7.90;99.90;;;;;;5112653;28;20574;-80
2023/04/09 09:10:03;;;;;;;6.30;5.27;;;8.00;99.90;;;;;;5112479;28;20474;-77
2023/04/09 09:12:37;;;;;;;5.47;4.97;;;8.10;99.90;;;;;;5112979;28;20236;-80
2023/04/09 09:15:04;;;;;;;6.13;5.63;;;8.00;99.90;;;;;;5114789;28;20228;-78
2023/04/09 09:17:30;;;;;;;5.50;5.00;;;8.00;99.90;;;;;;5117447;28;20209;-77
2023/04/09 09:19:56;;;;;;;5.77;5.27;;;8.00;99.90;;;;;;5113358;28;20211;-78
2023/04/09 09:22:24;;;;;;;6.07;5.47;;;7.80;99.90;;;;;;5094904;28;20172;-79
2023/04/09 09:24:51;;;;;;;6.30;5.70;;;7.70;99.90;;;;;;5112471;28;20195;-79
2023/04/09 09:27:39;;;;;;;7.77;5.90;;;7.60;99.90;;;;;;5112244;28;21016;-76
2023/04/09 09:30:06;;;;;;;6.20;5.50;;;7.50;99.90;;;;;;5112435;28;20187;-74
2023/04/09 09:32:35;;;;;;;7.17;5.60;;;7.50;99.90;;;;;;5112242;28;20180;-76
2023/04/09 09:35:05;;;;;;;6.33;5.63;;;7.50;99.90;;;;;;5112316;28;20176;-75
2023/04/09 09:37:32;;;;;;;6.37;5.30;;;7.40;99.90;;;;;;5114485;28;20161;-78
2023/04/09 09:39:59;;;;;;;5.80;5.17;;;7.30;99.90;;;;;;5119274;28;20239;-79
2023/04/09 09:42:26;;;;;;;5.60;5.10;;;7.20;99.90;;;;;;5112505;28;20168;-82
2023/04/09 09:44:53;;;;;;;5.60;5.13;;;7.00;99.90;;;;;;5094372;28;20175;-83
2023/04/09 09:47:20;;;;;;;6.20;5.60;;;6.80;99.90;;;;;;5112271;28;20275;-84
2023/04/09 09:49:50;;;;;;;5.90;5.30;;;7.10;99.90;;;;;;5112094;28;20201;-80
2023/04/09 09:52:23;;;;;;;6.17;5.67;;;7.40;99.90;;;;;;5093982;28;20176;-79
2023/04/09 09:54:54;;;;;;;5.90;5.40;;;7.90;99.90;;;;;;5112351;28;20177;-75
2023/04/09 09:57:23;;;;;;;5.20;4.70;;;8.40;99.90;;;;;;5112579;28;20226;-77
2023/04/09 09:59:59;;;;;;;5.13;4.63;;;8.70;99.90;;;;;;5113098;28;20207;-77
2023/04/09 10:02:30;;;;;;;5.60;4.73;;;9.00;99.90;;;;;;5112497;28;20157;-75
2023/04/09 10:04:59;;;;;;;4.80;4.40;;;9.20;99.90;;;;;;5112555;28;20177;-79
2023/04/09 10:07:26;;;;;;;5.00;4.50;;;9.40;99.90;;;;;;5093803;28;20177;-75
2023/04/09 10:09:54;;;;;;;5.23;4.80;;;9.70;99.90;;;;;;5111896;28;20170;-75
2023/04/09 10:12:25;;;;;;;5.03;4.33;;;10.00;99.90;;;;;;5111227;28;20236;-75
2023/04/09 10:15:03;;;;;;;4.47;4.00;;;10.30;99.90;;;;;;5112836;28;20241;-76
2023/04/09 10:17:29;;;;;;;3.70;3.40;;;10.40;99.90;;;;;;5112057;28;20154;-77
2023/04/09 10:20:10;;;;;;;3.67;3.47;;;10.50;99.90;;;;;;5111924;28;20201;-77
2023/04/09 10:22:37;;;;;;;3.43;3.17;;;10.50;99.90;;;;;;5111987;28;20267;-75
2023/04/09 10:25:05;;;;;;;3.23;3.03;;;10.50;99.90;;;;;;5112122;28;20208;-75
2023/04/09 10:27:31;;;;;;;3.43;3.23;;;10.50;99.90;;;;;;5111832;28;20180;-75
2023/04/09 10:29:59;;;;;;;3.87;3.17;;;10.50;99.90;;;;;;5114269;28;20276;-79
2023/04/09 10:32:26;;;;;;;4.00;3.70;;;10.50;99.90;;;;;;5116219;28;20169;-75
2023/04/09 10:34:57;;;;;;;3.90;3.60;;;10.40;99.90;;;;;;5115967;28;20551;-79
2023/04/09 10:37:24;;;;;;;3.57;3.30;;;10.30;99.90;;;;;;5097035;28;20215;-74
2023/04/09 10:39:51;;;;;;;3.60;3.30;;;10.30;99.90;;;;;;5115236;28;20267;-75
2023/04/09 10:42:29;;;;;;;3.70;3.40;;;10.10;99.90;;;;;;5115205;28;20632;-78
2023/04/09 10:45:09;;;;;;;3.73;3.43;;;10.00;99.90;;;;;;5115504;28;20178;-77
2023/04/09 10:47:36;;;;;;;3.70;3.40;;;9.90;99.90;;;;;;5115044;28;20253;-80
2023/04/09 10:50:26;;;;;;;3.73;3.43;;;10.00;99.90;;;;;;5115223;28;20198;-81
2023/04/09 10:52:55;;;;;;;3.50;3.27;;;10.00;99.90;;;;;;5115305;28;20187;-77
2023/04/09 10:55:38;;;;;;;3.60;3.20;;;10.30;99.90;;;;;;5116531;28;20544;-76
2023/04/09 10:58:09;;;;;;;3.70;3.40;;;10.40;99.80;;;;;;5097684;28;20185;-77
2023/04/09 11:00:40;;;;;;;3.27;3.03;;;10.50;99.80;;;;;;5115404;28;20326;-75
2023/04/09 11:03:18;;;;;;;3.87;3.57;;;10.30;98.90;;;;;;5120016;28;20170;-80
2023/04/09 11:05:49;;;;;;;3.20;3.00;;;10.00;99.80;;;;;;5119817;28;20173;-75
2023/04/09 11:08:15;;;;;;;3.30;3.10;;;9.80;99.90;;;;;;5116499;28;20164;-76
2023/04/09 11:10:49;;;;;;;3.67;3.33;;;9.60;99.90;;;;;;5115479;28;20710;-78
2023/04/09 11:13:16;;;;;;;3.20;3.00;;;9.60;99.90;;;;;;5115410;28;20207;-75
2023/04/09 11:15:44;;;;;;;3.20;3.00;;;9.80;99.50;;;;;;5114752;28;20268;-74
2023/04/09 11:18:26;;;;;;;3.50;3.30;;;9.90;99.10;;;;;;5115307;28;20181;-77
2023/04/09 11:20:56;;;;;;;3.27;3.07;;;9.90;99.20;;;;;;5116746;28;20201;-76
2023/04/09 11:23:23;;;;;;;3.47;3.27;;;10.20;99.00;;;;;;5115523;28;20177;-79
2023/04/09 11:25:50;;;;;;;3.50;3.23;;;10.30;99.30;;;;;;5114534;28;20173;-80
2023/04/09 11:28:16;;;;;;;3.30;3.10;;;10.40;99.20;;;;;;5087712;28;20598;-77
2023/04/09 11:30:42;;;;;;;3.07;2.87;;;10.50;98.80;;;;;;5095639;28;20221;-75
2023/04/09 11:33:08;;;;;;;3.50;3.23;;;10.50;98.90;;;;;;5096844;28;20193;-78
2023/04/09 11:35:37;;;;;;;3.27;3.07;;;10.40;99.50;;;;;;5110865;28;20178;-82
2023/04/09 11:38:10;;;;;;;3.57;3.37;;;10.40;99.50;;;;;;5107838;28;20186;-82
2023/04/09 11:40:46;;;;;;;4.00;3.70;;;10.40;99.50;;;;;;5106237;28;20213;-80
2023/04/09 11:43:13;;;;;;;4.17;3.83;;;10.60;99.00;;;;;;5094123;28;20169;-82
2023/04/09 11:45:39;;;;;;;4.07;3.77;;;10.60;99.00;;;;;;5093884;28;20185;-82
2023/04/09 11:48:05;;;;;;;6.67;3.80;;;10.80;99.00;;;;;;5093774;28;20182;-77
2023/04/09 11:50:31;;;;;;;4.03;3.73;;;10.90;98.40;;;;;;5093890;28;20171;-78
2023/04/09 11:52:57;;;;;;;3.73;3.53;;;10.90;97.90;;;;;;5093615;28;20200;-76
2023/04/09 11:55:27;;;;;;;4.00;3.70;;;10.90;98.50;;;;;;5093692;28;20276;-83
2023/04/09 11:57:57;;;;;;;3.60;3.40;;;11.00;98.50;;;;;;5093688;28;20186;-77
2023/04/09 12:00:23;;;;;;;3.57;3.37;;;11.00;98.20;;;;;;5093428;28;20286;-78
2023/04/09 12:02:57;;;;;;;3.47;3.27;;;11.20;97.60;;;;;;5093153;28;20174;-81
2023/04/09 12:05:26;;;;;;;3.83;3.50;;;11.20;97.10;;;;;;5093613;28;20174;-78
2023/04/09 12:08:00;;;;;;;3.77;3.47;;;11.10;97.50;;;;;;5100009;28;20240;-79
2023/04/09 12:10:31;;;;;;;3.47;3.27;;;11.20;96.80;;;;;;5094675;28;20635;-76
2023/04/09 12:13:06;;;;;;;3.70;3.40;;;11.20;96.10;;;;;;5113255;28;20176;-76
2023/04/09 12:15:34;;;;;;;4.80;4.50;;;11.10;96.70;;;;;;5094509;28;20622;-79
2023/04/09 12:18:00;;;;;;;9.00;3.60;;;10.90;95.60;;;;;;5113059;28;20179;-75
2023/04/09 12:20:38;;;;;;;3.70;3.50;;;10.70;95.70;;;;;;5113445;28;20202;-80
2023/04/09 12:23:06;;;;;;;3.80;3.50;;;10.50;96.40;;;;;;5095001;28;20273;-76
2023/04/09 12:25:37;;;;;;;3.90;3.70;;;10.40;96.40;;;;;;5112092;28;20513;-76
2023/04/09 12:28:04;;;;;;;4.27;3.97;;;10.30;96.50;;;;;;5094987;28;20298;-74
2023/04/09 12:30:31;;;;;;;3.80;3.50;;;10.10;97.40;;;;;;5113125;28;20235;-77
2023/04/09 12:32:57;;;;;;;3.80;3.60;;;10.00;98.80;;;;;;5113019;28;20174;-74
2023/04/09 12:35:23;;;;;;;127.00;63.28;;;10.00;98.70;;;;;;5112709;28;20434;-81
2023/04/09 12:37:50;;;;;;;63.13;31.97;;;9.90;99.40;;;;;;5112907;28;20652;-76
2023/04/09 12:40:16;;;;;;;28.70;16.67;;;9.80;99.40;;;;;;5113687;28;20209;-76
2023/04/09 12:42:43;;;;;;;16.70;11.57;;;9.90;99.40;;;;;;5114116;28;20206;-79
2023/04/09 12:45:11;;;;;;;16.00;10.67;;;10.10;99.50;;;;;;5112699;28;20181;-75
2023/04/09 12:47:38;;;;;;;12.27;8.43;;;10.30;99.90;;;;;;5094704;28;20201;-74
2023/04/09 12:50:05;;;;;;;10.40;7.40;;;10.50;99.90;;;;;;5119669;28;20337;-79
2023/04/09 12:52:31;;;;;;;8.13;6.43;;;10.50;99.90;;;;;;5123284;28;20184;-76
2023/04/09 12:54:57;;;;;;;4.80;4.40;;;10.50;99.90;;;;;;5120117;28;20247;-76